»·PEaware :: SWA1066 KPDX-KBOI

SWA1066 :: KPDX-KBOI

FLIGHT INFORMATION

Flight Status: Arrived
Operator:
Southwest Airlines
More flights by this operator :: More flights under this callsign
Pilot: Anonymous 19751 (19751)
Aircraft: BOEING 737-300
(B733)
More flights by this aircraft type
Origin: KPDX Portland Intl
United States
Destination: KBOI Boise Air Terminal/Gowen
United States
More flights between these airports :: More routes between these airports
Route: +WHAMY4 IMB HOSTS PARMO3
File this flight plan on PilotEdge
Remarks: Shared cockpit flight IXEG737
Altitude:
(Current/Filed)
37,000ft
Speed:
(Current/Filed)
428kts
Departed: 17-Jul-18 01:34 PM
Arrived: 17-Jul-18 02:29 PM
Distance/Time
Traveled:
298nm/0:55
Distance/Time
To Go:
Arrived

Flight Plot

Page will automatically refresh every two minutes.

Flight plan parsing failed; only flown route is shown


Map Options




Map Legend


Flown Route
Filed Route
Departure Airport
Arrival Airport
Navaid (VOR, NDB)
Fix

Horizontal Profiles

Position Reports

Time Latitude Longitude Heading Altitude Ground
Speed
17-Jul-18 13:09 45.589620 -122.599427 60 36ft 0kts
17-Jul-18 13:10 45.589620 -122.599427 60 36ft 0kts
17-Jul-18 13:11 45.589620 -122.599427 60 36ft 0kts
17-Jul-18 13:12 45.589620 -122.599427 60 36ft 0kts
17-Jul-18 13:13 45.589620 -122.599427 60 36ft 0kts
17-Jul-18 13:14 45.589620 -122.599427 60 36ft 0kts
17-Jul-18 13:15 45.589620 -122.599427 60 36ft 0kts
17-Jul-18 13:16 45.589620 -122.599427 60 36ft 0kts
17-Jul-18 13:17 45.589620 -122.599427 60 36ft 0kts
17-Jul-18 13:18 45.589620 -122.599427 60 36ft 0kts
17-Jul-18 13:19 45.589620 -122.599427 60 36ft 0kts
17-Jul-18 13:20 45.589620 -122.599427 60 36ft 0kts
17-Jul-18 13:21 45.589620 -122.599427 60 36ft 0kts
17-Jul-18 13:22 45.589620 -122.599427 60 36ft 0kts
17-Jul-18 13:23 45.589620 -122.599427 60 36ft 0kts
17-Jul-18 13:24 45.589620 -122.599427 60 36ft 0kts
17-Jul-18 13:25 45.589620 -122.599427 60 36ft 0kts
17-Jul-18 13:26 45.589620 -122.599428 60 36ft 0kts
17-Jul-18 13:27 45.589331 -122.600090 57 36ft 2kts
17-Jul-18 13:28 45.589172 -122.600767 119 36ft 1kts
17-Jul-18 13:29 45.589190 -122.600809 124 36ft 0kts
17-Jul-18 13:30 45.589190 -122.600809 124 36ft 0kts
17-Jul-18 13:31 45.589109 -122.600611 119 36ft 5kts
17-Jul-18 13:32 45.586629 -122.594365 127 36ft 24kts
17-Jul-18 13:33 45.582356 -122.585420 118 36ft 23kts
17-Jul-18 13:34 45.581594 -122.583573 138 36ft 2kts
17-Jul-18 13:35 45.584739 -122.594767 298 36ft 124kts
17-Jul-18 13:36 45.610616 -122.660078 299 1668ft 231kts
17-Jul-18 13:37 45.646261 -122.745035 299 4818ft 267kts
17-Jul-18 13:38 45.667410 -122.843401 254 8465ft 278kts
17-Jul-18 13:39 45.619369 -122.921954 183 11525ft 310kts
17-Jul-18 13:40 45.535727 -122.869900 127 14115ft 357kts
17-Jul-18 13:41 45.493567 -122.738259 115 15030ft 367kts
17-Jul-18 13:42 45.451928 -122.603909 115 17138ft 378kts
17-Jul-18 13:43 45.408344 -122.464257 115 19968ft 396kts
17-Jul-18 13:44 45.362887 -122.319355 116 22437ft 414kts
17-Jul-18 13:45 45.315178 -122.168007 116 24710ft 428kts
17-Jul-18 13:46 45.265579 -122.011813 117 26728ft 442kts
17-Jul-18 13:47 45.220550 -121.846466 112 28517ft 458kts
17-Jul-18 13:48 45.177188 -121.676998 112 30731ft 455kts
17-Jul-18 13:49 45.133906 -121.509267 112 32657ft 453kts
17-Jul-18 13:50 45.090669 -121.342912 113 34244ft 454kts
17-Jul-18 13:51 45.046783 -121.174922 114 35524ft 457kts
17-Jul-18 13:52 45.002078 -121.005378 114 36440ft 467kts
17-Jul-18 13:53 44.956807 -120.834889 114 37038ft 479kts
17-Jul-18 13:54 44.909908 -120.659478 114 37038ft 475kts
17-Jul-18 13:55 44.863040 -120.486695 114 37084ft 476kts
17-Jul-18 13:56 44.815985 -120.313243 114 37092ft 476kts
17-Jul-18 13:57 44.768794 -120.140324 115 37160ft 476kts
17-Jul-18 13:58 44.721083 -119.967029 115 37185ft 476kts
17-Jul-18 13:59 44.675870 -119.803903 115 37185ft 476kts
17-Jul-18 14:00 44.625767 -119.632490 116 37187ft 475kts
17-Jul-18 14:01 44.579747 -119.476196 115 37185ft 475kts
17-Jul-18 14:02 44.529770 -119.305537 116 37156ft 475kts
17-Jul-18 14:03 44.479536 -119.135121 116 37186ft 475kts
17-Jul-18 14:04 44.428734 -118.964201 116 36738ft 476kts
17-Jul-18 14:05 44.378151 -118.795123 115 35458ft 474kts
17-Jul-18 14:06 44.326857 -118.624825 115 33993ft 477kts
17-Jul-18 14:07 44.275291 -118.454755 115 32521ft 477kts
17-Jul-18 14:08 44.224500 -118.288174 115 31034ft 477kts
17-Jul-18 14:09 44.172491 -118.118766 115 29557ft 477kts
17-Jul-18 14:10 44.120107 -117.949378 115 28076ft 477kts
17-Jul-18 14:11 44.067475 -117.780302 115 26517ft 477kts
17-Jul-18 14:12 44.016428 -117.617275 115 24902ft 445kts
17-Jul-18 14:13 43.966241 -117.462670 116 23313ft 434kts
17-Jul-18 14:14 43.918724 -117.314207 116 21692ft 411kts
17-Jul-18 14:15 43.874385 -117.175296 117 20071ft 383kts
17-Jul-18 14:16 43.832467 -117.044554 116 18462ft 360kts
17-Jul-18 14:17 43.791612 -116.919461 114 16557ft 355kts
17-Jul-18 14:18 43.748455 -116.800202 129 14714ft 342kts
17-Jul-18 14:19 43.689918 -116.700215 129 13018ft 327kts
17-Jul-18 14:20 43.634394 -116.604763 128 11419ft 313kts
17-Jul-18 14:21 43.580578 -116.512443 128 9898ft 307kts
17-Jul-18 14:22 43.540127 -116.412329 114 8548ft 289kts
17-Jul-18 14:23 43.507800 -116.317733 114 7419ft 260kts
17-Jul-18 14:24 43.478271 -116.232045 115 6996ft 246kts
17-Jul-18 14:25 43.447184 -116.147668 114 7014ft 247kts
17-Jul-18 14:26 43.473495 -116.084679 16 6279ft 215kts
17-Jul-18 14:27 43.526444 -116.086605 314 4941ft 185kts
17-Jul-18 14:28 43.539148 -116.144182 289 3771ft 141kts
17-Jul-18 14:29 43.554993 -116.191666 294 3054ft 136kts
17-Jul-18 14:30 43.565154 -116.221837 301 2851ft 28kts
17-Jul-18 14:31 43.566552 -116.222457 114 2850ft 10kts
17-Jul-18 14:32 43.567293 -116.220837 24 2850ft 0kts
17-Jul-18 14:33 43.567293 -116.220837 24 2850ft 0kts
17-Jul-18 14:34 43.567293 -116.220837 24 2850ft 0kts
17-Jul-18 14:35 43.567293 -116.220837 24 2850ft 0kts
17-Jul-18 14:36 43.567293 -116.220837 24 2850ft 0kts
17-Jul-18 14:37 43.567293 -116.220837 24 2850ft 0kts
17-Jul-18 14:38 43.567293 -116.220837 24 2850ft 0kts
17-Jul-18 14:39 43.567293 -116.220837 24 2850ft 0kts
17-Jul-18 14:40 43.567293 -116.220837 24 2850ft 0kts
17-Jul-18 14:41 43.567293 -116.220837 24 2850ft 0kts

Navigation Log

Ident Type
Flight plan parsing failed, navigation log unavailable